Time;durP1;ratioP1;P1;durP2;ratioP2;P2;SDS_P1;SDS_P2;PMS_P1;PMS_P2;Temp;Humidity;BMP_temperature;BMP_pressure;BME280_temperature;BME280_humidity;BME280_pressure;Samples;Min_cycle;Max_cycle;Signal;HPM_P1;HPM_P2
2023/04/29 00:00:49;;;;;;;34.30;21.10;;;;;;;8.29;100.00;101348.66;5046685;28;20053;-79
2023/04/29 00:03:17;;;;;;;41.33;21.23;;;;;;;8.29;100.00;101348.66;4993702;28;20063;-80
2023/04/29 00:05:45;;;;;;;37.70;20.45;;;;;;;8.29;100.00;101359.16;5031891;28;20049;-80
2023/04/29 00:08:13;;;;;;;37.28;20.30;;;;;;;8.27;100.00;101348.63;5015798;28;20064;-80
2023/04/29 00:10:41;;;;;;;36.65;19.40;;;;;;;8.28;100.00;101346.88;5013868;28;20049;-80
2023/04/29 00:13:09;;;;;;;31.35;18.67;;;;;;;8.26;100.00;101352.13;5024635;28;20047;-81
2023/04/29 00:15:36;;;;;;;27.05;18.05;;;;;;;8.23;100.00;101349.41;5032990;28;20048;-79
2023/04/29 00:18:03;;;;;;;37.75;20.88;;;;;;;8.23;100.00;101353.78;4978546;28;20064;-80
2023/04/29 00:20:31;;;;;;;35.80;21.85;;;;;;;8.22;100.00;101355.50;5013282;28;20045;-79
2023/04/29 00:23:00;;;;;;;43.70;21.00;;;;;;;8.20;100.00;101352.88;5040107;28;20041;-79
2023/04/29 00:25:27;;;;;;;37.53;20.50;;;;;;;8.19;100.00;101364.22;5033148;28;20068;-80
2023/04/29 00:27:55;;;;;;;35.42;19.42;;;;;;;8.17;100.00;101360.69;5002428;28;20060;-80
2023/04/29 00:30:22;;;;;;;33.17;20.17;;;;;;;8.17;100.00;101363.31;5015427;28;20386;-80
2023/04/29 00:32:49;;;;;;;29.52;18.55;;;;;;;8.18;100.00;101361.56;5047177;28;20490;-80
2023/04/29 00:35:17;;;;;;;30.75;18.20;;;;;;;8.18;100.00;101370.34;4981620;28;20049;-80
2023/04/29 00:37:45;;;;;;;32.13;17.50;;;;;;;8.19;100.00;101364.22;5015206;28;20498;-79
2023/04/29 00:40:15;;;;;;;36.72;17.83;;;;;;;8.19;100.00;101374.72;5030443;28;20783;-80
2023/04/29 00:42:42;;;;;;;34.97;18.80;;;;;;;8.19;100.00;101369.47;5004945;28;20045;-79
2023/04/29 00:45:10;;;;;;;32.78;19.10;;;;;;;8.20;100.00;101379.13;5011796;28;20237;-79
2023/04/29 00:47:39;;;;;;;33.03;16.33;;;;;;;8.20;100.00;101384.38;5060987;28;20052;-79
2023/04/29 00:50:07;;;;;;;30.90;17.77;;;;;;;8.20;100.00;101387.00;5007627;28;20049;-79
2023/04/29 00:52:37;;;;;;;29.08;16.67;;;;;;;8.20;100.00;101381.75;5050905;28;20385;-79
2023/04/29 00:55:11;;;;;;;36.47;18.10;;;;;;;8.20;100.00;101392.25;5010286;28;20037;-79
2023/04/29 00:57:46;;;;;;;27.55;17.08;;;;;;;8.18;100.00;101388.72;5000701;28;20054;-79
2023/04/29 01:00:15;;;;;;;29.83;17.58;;;;;;;8.18;100.00;101396.59;5045596;28;20045;-78
2023/04/29 01:02:42;;;;;;;28.90;17.02;;;;;;;8.19;100.00;101398.34;5011227;28;20042;-80
2023/04/29 01:05:11;;;;;;;27.95;18.52;;;;;;;8.20;100.00;101409.72;4973409;28;21680;-80
2023/04/29 01:07:54;;;;;;;32.85;18.20;;;;;;;8.20;100.00;101404.47;4998276;28;20144;-79
2023/04/29 01:10:28;;;;;;;33.38;20.35;;;;;;;8.21;100.00;101422.00;5009537;28;20046;-79
2023/04/29 01:13:07;;;;;;;35.42;20.08;;;;;;;8.20;100.00;101418.50;5013441;28;20073;-79
2023/04/29 01:16:00;;;;;;;34.38;19.23;;;;;;;8.19;100.00;101414.09;5023248;28;20046;-78
2023/04/29 01:18:33;;;;;;;34.50;19.17;;;;;;;8.20;100.00;101421.13;5020205;28;20054;-79
2023/04/29 01:21:02;;;;;;;37.30;19.50;;;;;;;8.19;100.00;101418.47;4969402;28;20057;-79
2023/04/29 01:23:30;;;;;;;30.02;17.00;;;;;;;8.19;100.00;101428.97;5026066;28;20058;-79
2023/04/29 01:25:57;;;;;;;31.98;16.77;;;;;;;8.17;100.00;101434.19;5020514;28;20050;-79
2023/04/29 01:29:27;;;;;;;30.45;16.52;;;;;;;8.18;100.00;101432.44;4991631;28;23294;-78
2023/04/29 01:32:08;;;;;;;29.38;15.15;;;;;;;8.16;100.00;101429.78;5024417;28;20046;-79
2023/04/29 01:34:46;;;;;;;29.33;15.10;;;;;;;8.16;100.00;101431.53;5026884;28;20049;-78
2023/04/29 01:37:51;;;;;;;29.60;16.90;;;;;;;8.14;100.00;101438.47;4984459;28;20050;-78
2023/04/29 01:40:26;;;;;;;26.00;16.02;;;;;;;8.12;100.00;101435.81;4993106;28;20050;-79
2023/04/29 01:43:10;;;;;;;29.73;15.95;;;;;;;8.10;100.00;101437.53;4996754;28;20064;-78
2023/04/29 01:45:43;;;;;;;24.83;14.63;;;;;;;8.08;100.00;101444.47;5001213;28;20050;-78
2023/04/29 01:48:12;;;;;;;27.67;15.57;;;;;;;8.07;100.00;101442.72;5024392;28;20053;-78
2023/04/29 01:50:40;;;;;;;26.65;16.58;;;;;;;8.09;100.00;101447.97;5008625;28;20054;-78
2023/04/29 01:53:12;;;;;;;30.02;16.27;;;;;;;8.08;100.00;101454.09;4950421;28;20046;-79
2023/04/29 01:55:42;;;;;;;30.50;15.68;;;;;;;8.07;100.00;101450.59;5025609;28;20049;-77
2023/04/29 01:58:14;;;;;;;26.17;14.77;;;;;;;8.06;100.00;101455.81;4996953;28;20046;-79
2023/04/29 02:01:02;;;;;;;31.42;14.95;;;;;;;8.04;100.00;101458.38;4982324;28;20061;-78
2023/04/29 02:03:32;;;;;;;26.98;15.70;;;;;;;8.03;100.00;101471.47;4996936;28;20054;-79
2023/04/29 02:06:01;;;;;;;26.83;14.18;;;;;;;8.01;100.00;101468.81;4992806;28;20419;-79
2023/04/29 02:08:29;;;;;;;33.35;14.57;;;;;;;8.01;100.00;101474.06;4970790;28;20052;-78
2023/04/29 02:10:58;;;;;;;27.55;14.90;;;;;;;8.00;100.00;101477.53;5004939;28;20041;-78
2023/04/29 02:13:35;;;;;;;34.95;15.48;;;;;;;8.00;100.00;101472.28;4998044;28;20051;-78
2023/04/29 02:16:08;;;;;;;21.77;13.25;;;;;;;7.99;100.00;101475.75;5004929;28;20053;-78
2023/04/29 02:18:37;;;;;;;23.08;15.20;;;;;;;7.99;100.00;101478.38;5013328;28;20458;-78
2023/04/29 02:21:06;;;;;;;24.63;13.15;;;;;;;7.98;100.00;101485.38;4994709;28;20067;-79
2023/04/29 02:23:35;;;;;;;;;;;;;;;7.96;100.00;101492.31;4993589;28;20069;-79
2023/04/29 02:26:06;;;;;;;23.75;13.40;;;;;;;7.95;100.00;101494.91;4995304;28;19922;-79
2023/04/29 02:28:34;;;;;;;25.95;13.73;;;;;;;7.93;100.00;101501.84;4992356;28;20062;-78
2023/04/29 02:31:03;;;;;;;26.80;14.82;;;;;;;7.92;100.00;101507.94;5001034;28;20058;-79
2023/04/29 02:33:31;;;;;;;23.02;13.23;;;;;;;7.92;100.00;101513.19;5019056;28;20049;-79
2023/04/29 02:35:59;;;;;;;27.42;13.88;;;;;;;7.91;100.00;101517.56;5011416;28;20455;-79
2023/04/29 02:38:26;;;;;;;20.25;13.25;;;;;;;7.91;100.00;101535.06;4996470;28;20053;-78
2023/04/29 02:40:55;;;;;;;22.45;13.38;;;;;;;7.91;100.00;101528.06;4953201;28;20057;-80
2023/04/29 02:43:22;;;;;;;22.33;14.13;;;;;;;7.89;100.00;101528.88;5023501;28;20058;-79
2023/04/29 02:45:50;;;;;;;27.33;13.73;;;;;;;7.89;100.00;101534.13;4994836;28;20649;-78
2023/04/29 02:48:19;;;;;;;19.98;13.77;;;;;;;7.89;100.00;101537.63;5018624;28;20050;-77
2023/04/29 02:50:48;;;;;;;20.35;14.68;;;;;;;7.91;100.00;101540.31;5028265;28;20054;-78
2023/04/29 02:53:16;;;;;;;30.98;14.68;;;;;;;7.90;100.00;101539.41;5012224;28;20050;-78
2023/04/29 02:55:43;;;;;;;30.83;14.82;;;;;;;7.92;100.00;101544.69;4955321;28;20064;-78
2023/04/29 02:58:10;;;;;;;25.98;14.13;;;;;;;7.93;100.00;101552.59;4982839;28;20129;-79
2023/04/29 03:00:41;;;;;;;20.52;14.02;;;;;;;7.94;100.00;101561.34;5012090;28;20080;-78
2023/04/29 03:03:09;;;;;;;23.25;13.57;;;;;;;7.95;100.00;101561.41;4987192;28;20053;-79
2023/04/29 03:05:37;;;;;;;22.48;14.02;;;;;;;7.97;100.00;101566.69;5016714;28;20059;-78
2023/04/29 03:08:04;;;;;;;26.67;14.00;;;;;;;7.97;100.00;101578.06;5031883;28;20044;-78
2023/04/29 03:10:33;;;;;;;20.38;13.60;;;;;;;7.98;100.00;101571.09;4978319;28;20041;-77
2023/04/29 03:13:01;;;;;;;23.17;13.23;;;;;;;7.99;100.00;101578.13;5063743;28;20522;-78
2023/04/29 03:15:30;;;;;;;17.58;13.82;;;;;;;8.00;100.00;101579.91;5017392;28;20057;-78
2023/04/29 03:18:00;;;;;;;24.42;13.38;;;;;;;8.00;100.00;101580.78;5027349;28;20053;-77
2023/04/29 03:20:28;;;;;;;23.02;14.75;;;;;;;8.03;100.00;101589.59;5038517;28;20052;-78
2023/04/29 03:22:56;;;;;;;23.92;13.65;;;;;;;8.04;100.00;101584.38;5029645;28;20693;-77
2023/04/29 03:25:23;;;;;;;20.48;14.18;;;;;;;8.02;100.00;101586.06;5033094;28;20056;-77
2023/04/29 03:27:56;;;;;;;24.80;13.80;;;;;;;8.03;100.00;101590.47;4974881;28;20034;-79
2023/04/29 03:30:27;;;;;;;25.13;15.50;;;;;;;8.03;100.00;101595.72;5016599;28;20049;-77
2023/04/29 03:32:56;;;;;;;32.40;16.95;;;;;;;8.03;100.00;101598.34;5014134;28;20041;-77
2023/04/29 03:35:25;;;;;;;28.98;15.15;;;;;;;8.04;100.00;101599.25;5005385;28;20053;-78
2023/04/29 03:38:12;;;;;;;24.23;15.63;;;;;;;8.02;100.00;101591.31;5034498;28;20052;-77
2023/04/29 03:40:44;;;;;;;24.10;15.95;;;;;;;8.02;100.00;101590.44;5005988;28;20049;-78
2023/04/29 03:43:12;;;;;;;22.13;15.13;;;;;;;8.02;100.00;101595.69;5011654;28;20049;-78
2023/04/29 03:45:40;;;;;;;24.38;15.52;;;;;;;8.00;100.00;101600.91;5004359;28;20502;-79
2023/04/29 03:48:09;;;;;;;30.58;16.08;;;;;;;8.01;100.00;101594.78;5030263;28;20041;-80
2023/04/29 03:50:36;;;;;;;31.17;16.20;;;;;;;8.01;100.00;101610.53;5023752;28;20056;-80
2023/04/29 03:53:07;;;;;;;23.65;14.85;;;;;;;8.00;100.00;101611.41;5029884;28;20049;-79
2023/04/29 03:55:34;;;;;;;24.13;15.10;;;;;;;7.99;100.00;101613.13;5016324;28;20052;-80
2023/04/29 03:58:02;;;;;;;24.42;13.98;;;;;;;8.00;100.00;101619.28;4969371;28;20048;-79
2023/04/29 04:00:30;;;;;;;25.85;14.70;;;;;;;7.99;100.00;101613.13;5013841;28;20057;-77
2023/04/29 04:03:01;;;;;;;22.67;13.55;;;;;;;8.00;100.00;101625.41;4992643;28;20049;-78
2023/04/29 04:05:33;;;;;;;28.30;13.98;;;;;;;8.02;100.00;101627.19;4987632;28;20053;-78
2023/04/29 04:08:07;;;;;;;21.35;12.30;;;;;;;7.99;100.00;101631.47;5003440;28;20041;-79
2023/04/29 04:10:50;;;;;;;21.70;13.18;;;;;;;8.01;100.00;101628.91;5032172;28;20049;-79
2023/04/29 04:13:42;;;;;;;22.52;13.15;;;;;;;8.02;100.00;101633.31;4987815;28;20053;-79
2023/04/29 04:16:10;;;;;;;20.27;12.75;;;;;;;8.03;100.00;101649.94;5014741;28;20052;-78
2023/04/29 04:18:38;;;;;;;21.23;12.75;;;;;;;8.02;100.00;101642.94;5031153;28;20052;-78
2023/04/29 04:21:11;;;;;;;24.13;12.25;;;;;;;8.02;100.00;101643.81;5004678;28;20057;-78
2023/04/29 04:23:42;;;;;;;23.85;13.57;;;;;;;8.02;100.00;101648.19;5008106;28;20547;-78
2023/04/29 04:26:13;;;;;;;22.65;13.15;;;;;;;8.03;100.00;101658.72;4998371;28;20053;-77
2023/04/29 04:29:00;;;;;;;21.98;13.52;;;;;;;8.04;100.00;101664.88;4974340;28;20045;-78
2023/04/29 04:31:39;;;;;;;;;;;;;;;8.04;100.00;101662.25;5030272;28;20067;-78
2023/04/29 04:34:08;;;;;;;22.50;13.68;;;;;;;8.04;100.00;101667.50;4997925;28;19920;-78
2023/04/29 04:36:35;;;;;;;25.17;13.73;;;;;;;8.04;100.00;101672.75;5018610;28;20048;-78
2023/04/29 04:39:03;;;;;;;26.05;16.13;;;;;;;8.05;100.00;101682.38;5040394;28;20044;-78
2023/04/29 04:41:32;;;;;;;28.88;16.63;;;;;;;8.06;100.00;101684.16;5011671;28;20056;-77
2023/04/29 04:44:01;;;;;;;26.75;16.35;;;;;;;8.05;100.00;101687.63;5028399;28;20057;-77
2023/04/29 04:46:37;;;;;;;27.80;16.67;;;;;;;8.05;100.00;101691.13;4992698;28;20044;-78
2023/04/29 04:49:14;;;;;;;24.55;16.00;;;;;;;8.06;100.00;101698.19;5013391;28;20056;-78
2023/04/29 04:51:48;;;;;;;33.17;16.92;;;;;;;8.06;100.00;101706.06;5003619;28;20064;-78
2023/04/29 04:54:16;;;;;;;24.88;16.17;;;;;;;8.07;100.00;101701.69;5003810;28;20060;-79
2023/04/29 04:56:44;;;;;;;22.52;13.75;;;;;;;8.07;100.00;101704.31;5030609;28;20045;-79
2023/04/29 04:59:11;;;;;;;21.67;12.73;;;;;;;8.07;100.00;101709.56;4987611;28;20053;-80
2023/04/29 05:01:40;;;;;;;19.25;11.65;;;;;;;8.07;100.00;101715.72;5000980;28;20525;-77
2023/04/29 05:04:08;;;;;;;16.48;11.52;;;;;;;8.06;100.00;101716.56;5005192;28;20041;-80
2023/04/29 05:06:38;;;;;;;16.02;10.65;;;;;;;8.06;100.00;101718.28;5017491;28;20055;-80
2023/04/29 05:09:08;;;;;;;22.20;10.80;;;;;;;8.07;100.00;101722.69;5007568;28;20037;-79
2023/04/29 05:11:36;;;;;;;24.10;12.05;;;;;;;8.07;100.00;101726.22;5009378;28;20064;-79
2023/04/29 05:14:09;;;;;;;15.85;10.73;;;;;;;8.08;100.00;101725.34;5008153;28;20045;-79
2023/04/29 05:16:37;;;;;;;13.98;10.18;;;;;;;8.09;100.00;101721.91;4978812;28;20056;-79
2023/04/29 05:19:12;;;;;;;17.38;10.18;;;;;;;8.09;100.00;101721.91;5029344;28;20048;-79
2023/04/29 05:21:43;;;;;;;17.17;10.50;;;;;;;8.11;100.00;101728.06;5030847;28;20061;-79
2023/04/29 05:24:11;;;;;;;16.73;9.82;;;;;;;8.14;100.00;101740.38;4981770;28;20056;-79
2023/04/29 05:26:39;;;;;;;15.05;9.80;;;;;;;8.17;100.00;101732.59;5018858;28;20049;-79
2023/04/29 05:29:09;;;;;;;14.48;9.32;;;;;;;8.19;100.00;101739.66;5036064;28;20049;-78
2023/04/29 05:31:46;;;;;;;15.70;9.95;;;;;;;8.20;100.00;101725.72;4976137;28;20049;-78
2023/04/29 05:34:14;;;;;;;15.40;10.43;;;;;;;8.25;100.00;101731.06;5034790;28;20052;-78
2023/04/29 05:36:46;;;;;;;15.13;10.20;;;;;;;8.29;100.00;101737.28;5004227;28;20088;-79
2023/04/29 05:39:13;;;;;;;12.40;9.52;;;;;;;8.31;100.00;101735.59;5003075;28;20044;-78
2023/04/29 05:41:42;;;;;;;17.73;10.15;;;;;;;8.33;100.00;101745.28;5017185;28;20057;-78
2023/04/29 05:44:23;;;;;;;18.95;10.35;;;;;;;8.37;100.00;101743.63;5020227;28;20068;-78
2023/04/29 05:46:51;;;;;;;18.83;9.93;;;;;;;8.43;100.00;101749.09;4981633;28;20064;-79
2023/04/29 05:49:25;;;;;;;13.52;9.98;;;;;;;8.50;100.00;101752.75;5050188;28;20060;-78
2023/04/29 05:51:55;;;;;;;13.63;8.73;;;;;;;8.55;100.00;101751.16;5036532;28;20041;-79
2023/04/29 05:54:23;;;;;;;14.10;9.95;;;;;;;8.58;100.00;101757.38;5007769;28;20085;-79
2023/04/29 05:56:50;;;;;;;15.15;9.02;;;;;;;8.62;100.00;101757.44;5027679;28;20040;-78
2023/04/29 05:59:18;;;;;;;16.40;9.18;;;;;;;8.68;100.00;101773.38;5034152;28;20040;-78
2023/04/29 06:01:50;;;;;;;10.93;8.23;;;;;;;8.72;100.00;101777.88;4948197;28;20049;-79
2023/04/29 06:04:20;;;;;;;11.85;7.95;;;;;;;8.76;100.00;101777.97;5019799;28;20055;-79
2023/04/29 06:07:18;;;;;;;14.63;8.43;;;;;;;8.82;100.00;101782.47;5003716;28;20057;-78
2023/04/29 06:10:09;;;;;;;12.00;8.55;;;;;;;8.89;100.00;101789.69;5017954;28;20057;-80
2023/04/29 06:12:41;;;;;;;11.32;8.85;;;;;;;8.95;100.00;101794.22;5009895;28;20049;-79
2023/04/29 06:15:09;;;;;;;14.35;7.93;;;;;;;8.98;100.00;101795.16;5000755;28;20049;-77
2023/04/29 06:17:37;;;;;;;11.80;7.57;;;;;;;9.02;100.00;101804.03;4977398;28;21162;-80
2023/04/29 06:20:11;;;;;;;11.00;8.00;;;;;;;9.07;100.00;101806.75;5039734;28;20052;-79
2023/04/29 06:22:39;;;;;;;10.77;7.30;;;;;;;9.07;100.00;101806.75;5033545;28;20045;-78
2023/04/29 06:25:07;;;;;;;9.10;7.65;;;;;;;9.06;100.00;101807.63;4998832;28;20053;-79
2023/04/29 06:27:45;;;;;;;14.23;7.63;;;;;;;9.10;100.00;101812.97;5016935;28;20060;-79
2023/04/29 06:30:14;;;;;;;10.40;6.60;;;;;;;9.22;100.00;101808.88;5000527;28;20508;-79
2023/04/29 06:32:41;;;;;;;14.90;8.00;;;;;;;9.36;100.00;101811.00;5020363;28;20061;-79
2023/04/29 06:35:09;;;;;;;12.40;7.93;;;;;;;9.60;100.00;101809.75;4980138;28;20060;-78
2023/04/29 06:38:00;;;;;;;;;;;;;;;9.82;100.00;101811.13;5020910;28;20056;-79
2023/04/29 06:40:46;;;;;;;10.25;6.70;;;;;;;9.82;100.00;101823.41;5053883;28;19920;-80
2023/04/29 06:43:32;;;;;;;9.80;6.97;;;;;;;9.82;100.00;101820.78;5004486;28;20053;-78
2023/04/29 06:46:18;;;;;;;14.20;7.65;;;;;;;9.85;100.00;101819.09;5022617;28;20520;-79
2023/04/29 06:49:07;;;;;;;8.65;6.88;;;;;;;9.90;100.00;101829.72;4984660;28;20057;-78
2023/04/29 06:51:36;;;;;;;12.15;6.82;;;;;;;9.97;100.00;101834.28;5017943;28;20701;-79
2023/04/29 06:54:06;;;;;;;11.77;7.00;;;;;;;10.06;100.00;101841.50;5018240;28;20049;-79
2023/04/29 06:56:34;;;;;;;10.70;6.80;;;;;;;10.10;100.00;101846.84;5000198;28;20056;-78
2023/04/29 06:59:03;;;;;;;7.70;6.00;;;;;;;10.17;100.00;101846.97;4997562;28;20057;-79
2023/04/29 07:01:31;;;;;;;15.30;7.38;;;;;;;10.22;100.00;101850.59;5036433;28;20473;-79
2023/04/29 07:03:58;;;;;;;10.82;7.43;;;;;;;10.34;100.00;101853.53;5007574;28;20048;-79
2023/04/29 07:06:26;;;;;;;14.07;6.75;;;;;;;10.43;100.00;101861.59;4983266;28;20063;-79
2023/04/29 07:08:54;;;;;;;11.63;6.63;;;;;;;10.50;100.00;101863.50;4998374;28;20068;-78
2023/04/29 07:11:26;;;;;;;11.63;6.25;;;;;;;10.62;100.00;101860.19;5004572;28;20083;-80
2023/04/29 07:13:53;;;;;;;9.82;6.32;;;;;;;10.72;100.00;101869.19;5005188;28;20040;-79
2023/04/29 07:16:21;;;;;;;7.78;5.95;;;;;;;10.80;100.00;101862.31;5026615;28;20056;-79
2023/04/29 07:18:48;;;;;;;9.43;5.25;;;;;;;10.90;100.00;101871.28;5030300;28;20056;-80
2023/04/29 07:21:15;;;;;;;9.57;5.18;;;;;;;10.96;100.00;101875.75;4994713;28;20049;-79
2023/04/29 07:23:43;;;;;;;8.63;5.32;;;;;;;11.06;100.00;101881.25;5025518;28;20053;-78
2023/04/29 07:26:15;;;;;;;10.57;5.50;;;;;;;11.18;100.00;101887.59;5011734;28;20054;-79
2023/04/29 07:28:45;;;;;;;7.65;5.28;;;;;;;11.20;100.00;101893.78;5027099;28;20041;-79
2023/04/29 07:31:13;;;;;;;6.18;5.15;;;;;;;11.19;100.00;101886.72;4987979;28;20045;-79
2023/04/29 07:33:41;;;;;;;6.90;5.05;;;;;;;11.21;100.00;101895.53;5029796;28;20052;-79
2023/04/29 07:36:10;;;;;;;7.38;4.80;;;;;;;11.19;100.00;101900.81;4975698;28;20053;-79
2023/04/29 07:38:37;;;;;;;13.27;5.63;;;;;;;11.16;100.00;101895.47;5037331;28;20041;-80
2023/04/29 07:41:06;;;;;;;11.52;6.10;;;;;;;11.19;100.00;101906.09;5030945;28;20517;-78
2023/04/29 07:43:34;;;;;;;8.48;5.10;;;;;;;11.16;100.00;101900.75;5010918;28;20076;-78
2023/04/29 07:46:01;;;;;;;8.73;5.85;;;;;;;11.10;100.00;101908.56;4999802;28;20052;-79
2023/04/29 07:48:29;;;;;;;20.15;7.30;;;;;;;11.02;100.00;101911.06;5023746;28;20049;-78
2023/04/29 07:50:56;;;;;;;9.23;5.78;;;;;;;10.97;100.00;101906.56;4994889;28;20120;-80
2023/04/29 07:53:24;;;;;;;10.15;5.63;;;;;;;10.89;100.00;101912.59;5010300;28;20057;-79
2023/04/29 07:55:51;;;;;;;11.48;6.28;;;;;;;10.92;100.00;101909.97;5034172;28;20064;-79
2023/04/29 07:58:21;;;;;;;7.93;5.82;;;;;;;10.91;100.00;101908.22;5010308;28;20049;-79
2023/04/29 08:00:48;;;;;;;9.57;5.90;;;;;;;10.87;100.00;101911.66;4994971;28;20105;-77
2023/04/29 08:03:15;;;;;;;11.18;6.20;;;;;;;10.89;100.00;101912.59;4983293;28;20064;-78
2023/04/29 08:05:43;;;;;;;8.88;5.50;;;;;;;10.93;100.00;101917.06;5013891;28;20048;-78
2023/04/29 08:08:17;;;;;;;6.75;5.03;;;;;;;10.93;100.00;101911.78;4970818;28;20049;-79
2023/04/29 08:10:52;;;;;;;10.88;5.30;;;;;;;10.97;100.00;101922.41;5002607;28;20048;-79
2023/04/29 08:13:21;;;;;;;8.43;5.05;;;;;;;11.01;100.00;101917.19;5008386;28;20061;-78
2023/04/29 08:15:49;;;;;;;9.65;5.68;;;;;;;11.10;100.00;101921.75;5007632;28;20053;-79
2023/04/29 08:18:17;;;;;;;10.50;6.30;;;;;;;11.14;100.00;101918.31;5007197;28;20054;-78
2023/04/29 08:20:46;;;;;;;14.15;6.00;;;;;;;11.24;100.00;101922.88;5013182;28;20060;-78
2023/04/29 08:23:14;;;;;;;8.88;5.65;;;;;;;11.36;100.00;101924.88;4964911;28;20045;-77
2023/04/29 08:25:42;;;;;;;9.52;5.38;;;;;;;11.41;100.00;101922.28;5035447;28;20041;-77
2023/04/29 08:28:10;;;;;;;7.90;5.38;;;;;;;11.38;100.00;101938.06;5020296;28;20064;-80
2023/04/29 08:30:40;;;;;;;11.02;5.25;;;;;;;11.30;100.00;101951.13;5030389;28;20044;-80
2023/04/29 08:33:08;;;;;;;9.60;4.28;;;;;;;11.25;100.00;101934.34;5012011;28;20045;-79
2023/04/29 08:35:38;;;;;;;7.22;4.18;;;;;;;11.26;100.00;101947.53;5014047;28;20056;-79
2023/04/29 08:38:10;;;;;;;8.52;4.35;;;;;;;11.38;100.00;101956.53;4968679;28;20040;-79
2023/04/29 08:40:44;;;;;;;9.95;3.85;;;;;;;11.48;100.00;101962.00;5017768;28;20045;-79
2023/04/29 08:43:16;;;;;;;9.48;4.07;;;;;;;11.57;100.00;101963.00;5005580;28;20041;-79
2023/04/29 08:45:47;;;;;;;6.20;3.33;;;;;;;11.62;100.00;101967.50;5033321;28;20895;-79
2023/04/29 08:48:16;;;;;;;3.40;3.10;;;;;;;11.67;100.00;101970.25;4997802;28;20055;-81
2023/04/29 08:50:44;;;;;;;9.60;3.38;;;;;;;11.67;100.00;101973.75;5016684;28;20509;-80
2023/04/29 08:53:13;;;;;;;5.40;3.00;;;;;;;11.68;100.00;101977.28;5011459;28;20048;-79
2023/04/29 08:55:43;;;;;;;6.85;3.08;;;;;;;11.70;100.00;101986.13;5033204;28;20397;-81
2023/04/29 08:58:12;;;;;;;7.40;3.45;;;;;;;11.68;100.00;101986.13;5019917;28;20044;-80
2023/04/29 09:00:41;;;;;;;7.03;3.28;;;;;;;11.64;100.00;101986.03;5014791;28;20060;-79
2023/04/29 09:03:24;;;;;;;6.35;2.50;;;;;;;11.62;100.00;101993.91;5023579;28;20049;-78
2023/04/29 09:05:54;;;;;;;6.20;2.90;;;;;;;11.58;100.00;101994.72;5013023;28;20061;-79
2023/04/29 09:08:23;;;;;;;5.45;2.33;;;;;;;11.57;100.00;101995.59;4967863;28;20461;-79
2023/04/29 09:10:54;;;;;;;6.60;3.13;;;;;;;11.65;100.00;101996.63;5017680;28;20064;-79
2023/04/29 09:13:29;;;;;;;5.78;2.88;;;;;;;11.70;100.00;101999.31;5012658;28;20517;-79
2023/04/29 09:15:59;;;;;;;5.60;2.92;;;;;;;11.74;100.00;101994.97;5005929;28;20052;-79
2023/04/29 09:18:50;;;;;;;4.57;2.40;;;;;;;11.77;100.00;102005.59;5036713;28;20458;-78
2023/04/29 09:21:36;;;;;;;;;;;;;;;11.82;100.00;102007.47;5034024;28;20045;-79
2023/04/29 09:24:03;;;;;;;8.25;3.45;;;;;;;11.87;100.00;102000.50;4991726;28;19928;-79
2023/04/29 09:26:41;;;;;;;6.50;2.92;;;;;;;11.94;100.00;102000.63;5000739;28;20061;-82
2023/04/29 09:29:12;;;;;;;8.60;2.80;;;;;;;12.01;100.00;102000.75;5010293;28;20580;-79
2023/04/29 09:31:41;;;;;;;9.75;3.33;;;;;;;12.13;100.00;102015.91;4984229;28;20056;-79
2023/04/29 09:34:10;;;;;;;5.25;2.45;;;;;;;12.27;100.00;102016.13;5004943;28;20395;-78
2023/04/29 09:36:47;;;;;;;4.50;2.75;;;;;;;12.40;100.00;102018.09;5003674;28;20055;-78
2023/04/29 09:39:21;;;;;;;4.72;3.22;;;;;;;12.52;100.00;102020.00;4972993;28;20049;-77
2023/04/29 09:41:49;;;;;;;8.40;3.50;;;;;;;12.59;100.00;102029.81;5012928;28;20053;-78
2023/04/29 09:44:18;;;;;;;7.35;3.15;;;;;;;12.63;100.00;102015.75;5030678;28;20060;-78
2023/04/29 09:46:58;;;;;;;3.90;3.22;;;;;;;12.61;100.00;102022.78;5017535;28;20664;-78
2023/04/29 09:49:27;;;;;;;;;;;;;;;12.59;100.00;102026.25;5015594;28;20052;-79
2023/04/29 09:51:59;;;;;;;8.18;3.80;;;;;;;12.57;100.00;102035.91;5016651;28;20452;-79
2023/04/29 09:54:28;;;;;;;7.05;3.65;;;;;;;12.59;100.00;102023.59;4984942;28;20049;-79
2023/04/29 09:57:01;;;;;;;6.05;3.42;;;;;;;12.60;100.00;102022.75;5015394;28;20045;-79
2023/04/29 09:59:28;;;;;;;7.38;3.38;;;;;;;12.62;100.00;102028.94;5026610;28;20045;-79
2023/04/29 10:01:58;;;;;;;6.57;3.33;;;;;;;12.65;100.00;102024.59;4988446;28;20060;-80
2023/04/29 10:04:26;;;;;;;7.38;3.58;;;;;;;12.66;100.00;102026.38;5006745;28;20049;-78
2023/04/29 10:06:55;;;;;;;5.50;3.60;;;;;;;12.75;100.00;102022.06;5005048;28;20056;-78
2023/04/29 10:09:23;;;;;;;6.50;3.47;;;;;;;12.82;100.00;102023.94;5018788;28;20067;-83
2023/04/29 10:11:52;;;;;;;6.03;4.15;;;;;;;12.83;100.00;102026.56;4997064;28;20050;-84
2023/04/29 10:14:21;;;;;;;5.93;3.67;;;;;;;12.86;100.00;102034.56;5023334;28;20049;-80
2023/04/29 10:16:50;;;;;;;5.20;4.38;;;;;;;12.86;100.00;102036.31;5033791;28;20057;-85
2023/04/29 10:19:32;;;;;;;7.38;4.63;;;;;;;12.90;100.00;102040.78;5034376;28;20534;-83
2023/04/29 10:22:06;;;;;;;5.78;5.07;;;;;;;12.94;100.00;102032.00;5010585;28;20057;-84
2023/04/29 10:24:36;;;;;;;5.82;3.97;;;;;;;12.98;100.00;102022.34;5030486;28;20052;-83
2023/04/29 10:27:11;;;;;;;5.47;4.53;;;;;;;13.00;100.00;102023.25;4993605;28;20462;-79
2023/04/29 10:29:40;;;;;;;6.88;4.63;;;;;;;13.04;100.00;102019.78;5009280;28;20415;-78
2023/04/29 10:32:09;;;;;;;7.43;4.40;;;;;;;13.11;100.00;102026.91;5016480;28;20554;-78
2023/04/29 10:34:40;;;;;;;5.07;4.18;;;;;;;13.15;100.00;102026.06;4988612;28;20830;-78
2023/04/29 10:37:11;;;;;;;9.40;4.05;;;;;;;13.18;100.00;102023.47;4987841;28;20199;-77
2023/04/29 10:39:51;;;;;;;5.90;3.67;;;;;;;13.21;100.00;102020.88;5034868;28;20124;-77
2023/04/29 10:42:51;;;;;;;6.93;3.80;;;;;;;13.22;100.00;102022.63;4984437;28;20430;-79
2023/04/29 10:45:27;;;;;;;5.90;3.60;;;;;;;13.25;100.00;102033.28;4973255;28;20076;-78
2023/04/29 10:48:01;;;;;;;6.38;2.75;;;;;;;13.24;98.56;102025.31;5013044;28;20482;-78
2023/04/29 10:50:30;;;;;;;4.43;3.13;;;;;;;13.24;100.00;102022.66;5014319;28;20599;-78
2023/04/29 10:53:01;;;;;;;5.15;2.55;;;;;;;13.26;100.00;102035.03;4996578;28;20049;-78
2023/04/29 10:55:30;;;;;;;3.75;2.50;;;;;;;13.32;100.00;102018.34;5016332;28;20441;-78
2023/04/29 10:57:58;;;;;;;5.60;2.70;;;;;;;13.36;99.87;102024.56;4970277;28;20076;-78
2023/04/29 11:00:27;;;;;;;4.10;2.38;;;;;;;13.35;99.50;102031.63;5000202;28;20045;-77
2023/04/29 11:03:00;;;;;;;4.53;3.08;;;;;;;13.28;99.86;102024.47;5042699;28;20041;-77
2023/04/29 11:05:35;;;;;;;6.65;2.85;;;;;;;13.30;100.00;102030.69;5022254;28;20049;-78
2023/04/29 11:08:15;;;;;;;9.70;3.08;;;;;;;13.33;100.00;102038.69;5022654;28;20053;-78
2023/04/29 11:10:42;;;;;;;5.93;2.85;;;;;;;13.38;99.44;102051.94;5007719;28;20760;-78
2023/04/29 11:13:27;;;;;;;5.55;2.47;;;;;;;13.42;99.21;102045.81;4956967;28;20434;-81
2023/04/29 11:16:09;;;;;;;7.20;2.47;;;;;;;13.50;98.94;102040.63;5029651;28;20041;-82
2023/04/29 11:19:05;;;;;;;6.32;2.85;;;;;;;13.55;95.25;102039.75;5013577;28;20177;-78
2023/04/29 11:21:35;;;;;;;6.75;2.30;;;;;;;13.59;94.59;102049.53;5024868;28;20052;-77
2023/04/29 11:24:05;;;;;;;6.03;2.10;;;;;;;13.68;95.25;102053.16;5031206;28;20042;-81
2023/04/29 11:26:36;;;;;;;6.45;2.25;;;;;;;13.68;93.27;102042.53;5016604;28;20434;-78
2023/04/29 11:29:04;;;;;;;4.97;2.40;;;;;;;13.64;90.06;102042.50;4980789;28;20502;-78
2023/04/29 11:31:32;;;;;;;5.38;2.20;;;;;;;13.63;88.08;102050.47;5010788;28;20798;-78
2023/04/29 11:34:00;;;;;;;3.80;2.55;;;;;;;13.70;87.62;102043.44;5021502;28;20528;-78